sensor_id;sensor_type;location;lat;lon;timestamp;pressure;altitude;pressure_sealevel;temperature;humidity
72226;BME280;60130;52.250;5.048;2022-10-16T00:00:00;1008.7;;;14.2;80.0
72226;BME280;60130;52.250;5.048;2022-10-16T00:05:00;1008.7;;;14.1;79.8
72226;BME280;60130;52.250;5.048;2022-10-16T00:10:00;1008.7;;;14.1;79.6
72226;BME280;60130;52.250;5.048;2022-10-16T00:15:00;1008.6;;;14.1;79.4
72226;BME280;60130;52.250;5.048;2022-10-16T00:20:00;1008.5;;;14.0;79.5
72226;BME280;60130;52.250;5.048;2022-10-16T00:25:00;1008.5;;;14.1;79.3
72226;BME280;60130;52.250;5.048;2022-10-16T00:30:00;1008.6;;;14.1;79.1
72226;BME280;60130;52.250;5.048;2022-10-16T00:35:00;1008.5;;;14.2;78.3
72226;BME280;60130;52.250;5.048;2022-10-16T00:40:00;1008.5;;;14.2;78.8
72226;BME280;60130;52.250;5.048;2022-10-16T00:45:00;1008.6;;;14.2;78.7
72226;BME280;60130;52.250;5.048;2022-10-16T00:50:05;1008.6;;;14.1;78.8
72226;BME280;60130;52.250;5.048;2022-10-16T00:55:02;1008.6;;;14.2;78.3
72226;BME280;60130;52.250;5.048;2022-10-16T01:00:00;1008.6;;;14.3;78.3
72226;BME280;60130;52.250;5.048;2022-10-16T01:05:00;1008.5;;;14.3;78.5
72226;BME280;60130;52.250;5.048;2022-10-16T01:10:07;1008.5;;;14.3;77.8
72226;BME280;60130;52.250;5.048;2022-10-16T01:15:07;1008.5;;;14.4;77.6
72226;BME280;60130;52.250;5.048;2022-10-16T01:20:04;1008.5;;;14.5;77.3
72226;BME280;60130;52.250;5.048;2022-10-16T01:25:03;1008.5;;;14.6;77.5
72226;BME280;60130;52.250;5.048;2022-10-16T01:30:04;1008.6;;;14.6;77.7
72226;BME280;60130;52.250;5.048;2022-10-16T01:35:04;1008.6;;;14.5;78.1
72226;BME280;60130;52.250;5.048;2022-10-16T01:40:03;1008.6;;;14.6;78.2
72226;BME280;60130;52.250;5.048;2022-10-16T01:45:01;1008.5;;;14.5;79.1
72226;BME280;60130;52.250;5.048;2022-10-16T01:50:02;1008.6;;;14.5;79.6
72226;BME280;60130;52.250;5.048;2022-10-16T01:55:01;1008.6;;;14.3;80.4
72226;BME280;60130;52.250;5.048;2022-10-16T02:00:05;1008.6;;;14.3;80.9
72226;BME280;60130;52.250;5.048;2022-10-16T02:05:05;1008.6;;;14.2;81.6
72226;BME280;60130;52.250;5.048;2022-10-16T02:10:00;1008.6;;;14.1;82.1
72226;BME280;60130;52.250;5.048;2022-10-16T02:15:00;1008.7;;;13.9;83.2
72226;BME280;60130;52.250;5.048;2022-10-16T02:20:00;1008.8;;;13.9;83.3
72226;BME280;60130;52.250;5.048;2022-10-16T02:25:04;1008.8;;;13.9;83.3
72226;BME280;60130;52.250;5.048;2022-10-16T02:30:05;1008.9;;;13.9;83.3
72226;BME280;60130;52.250;5.048;2022-10-16T02:35:01;1009.0;;;13.8;83.5
72226;BME280;60130;52.250;5.048;2022-10-16T02:40:00;1009.0;;;13.8;83.2
72226;BME280;60130;52.250;5.048;2022-10-16T02:45:00;1009.0;;;13.9;83.3
72226;BME280;60130;52.250;5.048;2022-10-16T02:50:00;1009.0;;;14.0;83.1
72226;BME280;60130;52.250;5.048;2022-10-16T02:55:00;1009.0;;;13.9;83.2
72226;BME280;60130;52.250;5.048;2022-10-16T03:00:00;1009.0;;;13.9;83.6
72226;BME280;60130;52.250;5.048;2022-10-16T03:05:00;1009.0;;;13.8;83.9
72226;BME280;60130;52.250;5.048;2022-10-16T03:10:00;1008.9;;;13.8;83.8
72226;BME280;60130;52.250;5.048;2022-10-16T03:15:00;1008.9;;;13.9;83.4
72226;BME280;60130;52.250;5.048;2022-10-16T03:20:00;1008.9;;;13.9;83.5
72226;BME280;60130;52.250;5.048;2022-10-16T03:25:00;1009.0;;;13.9;83.2
72226;BME280;60130;52.250;5.048;2022-10-16T03:30:00;1009.1;;;13.8;83.8
72226;BME280;60130;52.250;5.048;2022-10-16T03:35:00;1009.2;;;13.8;83.9
72226;BME280;60130;52.250;5.048;2022-10-16T03:40:00;1009.1;;;13.8;84.0
72226;BME280;60130;52.250;5.048;2022-10-16T03:45:00;1009.2;;;13.7;84.5
72226;BME280;60130;52.250;5.048;2022-10-16T03:50:00;1009.2;;;13.7;84.5
72226;BME280;60130;52.250;5.048;2022-10-16T03:55:00;1009.2;;;13.7;84.4
72226;BME280;60130;52.250;5.048;2022-10-16T04:00:00;1009.3;;;13.7;84.4
72226;BME280;60130;52.250;5.048;2022-10-16T04:05:00;1009.3;;;13.7;84.6
72226;BME280;60130;52.250;5.048;2022-10-16T04:10:00;1009.3;;;13.7;84.8
72226;BME280;60130;52.250;5.048;2022-10-16T04:15:00;1009.5;;;13.6;84.9
72226;BME280;60130;52.250;5.048;2022-10-16T04:20:00;1009.5;;;13.6;85.1
72226;BME280;60130;52.250;5.048;2022-10-16T04:25:00;1009.6;;;13.6;85.0
72226;BME280;60130;52.250;5.048;2022-10-16T04:30:00;1009.7;;;13.6;85.1
72226;BME280;60130;52.250;5.048;2022-10-16T04:35:00;1009.8;;;13.6;85.2
72226;BME280;60130;52.250;5.048;2022-10-16T04:40:00;1009.9;;;13.6;85.4
72226;BME280;60130;52.250;5.048;2022-10-16T04:45:00;1009.9;;;13.6;85.5
72226;BME280;60130;52.250;5.048;2022-10-16T04:50:00;1009.9;;;13.7;85.5
72226;BME280;60130;52.250;5.048;2022-10-16T04:55:00;1010.0;;;13.7;85.1
72226;BME280;60130;52.250;5.048;2022-10-16T05:00:00;1010.2;;;13.8;85.2
72226;BME280;60130;52.250;5.048;2022-10-16T05:05:00;1010.2;;;13.7;85.6
72226;BME280;60130;52.250;5.048;2022-10-16T05:10:00;1010.3;;;13.7;85.6
72226;BME280;60130;52.250;5.048;2022-10-16T05:15:00;1010.4;;;13.8;85.3
72226;BME280;60130;52.250;5.048;2022-10-16T05:20:00;1010.6;;;13.7;85.6
72226;BME280;60130;52.250;5.048;2022-10-16T05:25:00;1010.6;;;13.7;86.0
72226;BME280;60130;52.250;5.048;2022-10-16T05:30:00;1010.7;;;13.7;86.0
72226;BME280;60130;52.250;5.048;2022-10-16T05:35:00;1010.7;;;13.7;86.2
72226;BME280;60130;52.250;5.048;2022-10-16T05:40:00;1010.6;;;13.6;86.9
72226;BME280;60130;52.250;5.048;2022-10-16T05:45:00;1010.7;;;13.6;87.4
72226;BME280;60130;52.250;5.048;2022-10-16T05:50:00;1010.8;;;13.6;87.6
72226;BME280;60130;52.250;5.048;2022-10-16T05:55:00;1010.9;;;13.5;88.2
72226;BME280;60130;52.250;5.048;2022-10-16T06:00:00;1011.0;;;13.5;88.5
72226;BME280;60130;52.250;5.048;2022-10-16T06:05:00;1011.2;;;13.4;89.2
72226;BME280;60130;52.250;5.048;2022-10-16T06:10:00;1011.1;;;13.4;89.8
72226;BME280;60130;52.250;5.048;2022-10-16T06:15:00;1011.1;;;13.4;89.9
72226;BME280;60130;52.250;5.048;2022-10-16T06:20:00;1011.0;;;13.3;90.3
72226;BME280;60130;52.250;5.048;2022-10-16T06:25:00;1011.1;;;13.3;90.5
72226;BME280;60130;52.250;5.048;2022-10-16T06:30:00;1011.1;;;13.3;90.4
72226;BME280;60130;52.250;5.048;2022-10-16T06:35:00;1011.1;;;13.2;90.6
72226;BME280;60130;52.250;5.048;2022-10-16T06:40:00;1011.2;;;13.1;90.7
72226;BME280;60130;52.250;5.048;2022-10-16T06:45:00;1011.3;;;13.1;90.7
72226;BME280;60130;52.250;5.048;2022-10-16T06:50:00;1011.3;;;13.2;90.6
72226;BME280;60130;52.250;5.048;2022-10-16T06:55:00;1011.4;;;13.3;90.3
72226;BME280;60130;52.250;5.048;2022-10-16T07:00:00;1011.5;;;13.4;89.9
72226;BME280;60130;52.250;5.048;2022-10-16T07:05:00;1011.6;;;13.4;89.8
72226;BME280;60130;52.250;5.048;2022-10-16T07:10:00;1011.7;;;13.5;89.2
72226;BME280;60130;52.250;5.048;2022-10-16T07:15:00;1011.8;;;13.6;88.5
72226;BME280;60130;52.250;5.048;2022-10-16T07:20:00;1011.9;;;13.6;88.1
72226;BME280;60130;52.250;5.048;2022-10-16T07:25:00;1012.0;;;13.8;87.0
72226;BME280;60130;52.250;5.048;2022-10-16T07:30:00;1012.0;;;13.8;86.1
72226;BME280;60130;52.250;5.048;2022-10-16T07:35:00;1012.2;;;13.8;85.4
72226;BME280;60130;52.250;5.048;2022-10-16T07:40:00;1012.3;;;13.7;85.5
72226;BME280;60130;52.250;5.048;2022-10-16T07:45:00;1012.4;;;13.8;85.5
72226;BME280;60130;52.250;5.048;2022-10-16T07:50:00;1012.5;;;13.9;85.7
72226;BME280;60130;52.250;5.048;2022-10-16T07:55:00;1012.6;;;14.1;85.8
72226;BME280;60130;52.250;5.048;2022-10-16T08:00:00;1012.7;;;14.1;85.7
72226;BME280;60130;52.250;5.048;2022-10-16T08:05:00;1012.7;;;14.2;85.4
72226;BME280;60130;52.250;5.048;2022-10-16T08:10:00;1012.8;;;14.4;85.0
72226;BME280;60130;52.250;5.048;2022-10-16T08:15:00;1012.9;;;14.4;85.0
72226;BME280;60130;52.250;5.048;2022-10-16T08:20:00;1013.0;;;14.6;85.0
72226;BME280;60130;52.250;5.048;2022-10-16T08:25:00;1013.0;;;14.6;84.9
72226;BME280;60130;52.250;5.048;2022-10-16T08:30:00;1013.0;;;14.8;84.5
72226;BME280;60130;52.250;5.048;2022-10-16T08:35:00;1013.0;;;14.9;84.3
72226;BME280;60130;52.250;5.048;2022-10-16T08:40:00;1013.2;;;15.1;83.9
72226;BME280;60130;52.250;5.048;2022-10-16T08:45:06;1013.2;;;15.2;83.4
72226;BME280;60130;52.250;5.048;2022-10-16T08:50:08;1013.4;;;15.3;83.1
72226;BME280;60130;52.250;5.048;2022-10-16T08:55:00;1013.5;;;15.3;82.8
72226;BME280;60130;52.250;5.048;2022-10-16T09:00:08;1013.6;;;15.5;82.6
72226;BME280;60130;52.250;5.048;2022-10-16T09:05:10;1013.7;;;15.7;82.2
72226;BME280;60130;52.250;5.048;2022-10-16T09:10:10;1013.8;;;15.8;81.9
72226;BME280;60130;52.250;5.048;2022-10-16T09:15:05;1013.9;;;15.8;81.8
72226;BME280;60130;52.250;5.048;2022-10-16T09:20:12;1013.9;;;15.9;81.1
72226;BME280;60130;52.250;5.048;2022-10-16T09:25:10;1014.0;;;15.9;80.4
72226;BME280;60130;52.250;5.048;2022-10-16T09:30:00;1014.0;;;16.1;80.5
72226;BME280;60130;52.250;5.048;2022-10-16T09:35:00;1014.1;;;16.1;78.9
72226;BME280;60130;52.250;5.048;2022-10-16T09:40:00;1014.0;;;16.3;78.9
72226;BME280;60130;52.250;5.048;2022-10-16T09:45:00;1014.2;;;16.4;78.5
72226;BME280;60130;52.250;5.048;2022-10-16T09:50:02;1014.2;;;16.5;78.1
72226;BME280;60130;52.250;5.048;2022-10-16T09:55:02;1014.2;;;16.7;77.8
72226;BME280;60130;52.250;5.048;2022-10-16T10:00:08;1014.2;;;16.7;76.6
72226;BME280;60130;52.250;5.048;2022-10-16T10:05:00;1014.2;;;16.9;75.2
72226;BME280;60130;52.250;5.048;2022-10-16T10:10:02;1014.3;;;16.5;75.4
72226;BME280;60130;52.250;5.048;2022-10-16T10:15:04;1014.3;;;16.7;74.6
72226;BME280;60130;52.250;5.048;2022-10-16T10:20:13;1014.3;;;16.9;74.6
72226;BME280;60130;52.250;5.048;2022-10-16T10:25:12;1014.4;;;17.3;74.1
72226;BME280;60130;52.250;5.048;2022-10-16T10:30:04;1014.5;;;17.2;73.8
72226;BME280;60130;52.250;5.048;2022-10-16T10:35:07;1014.6;;;17.0;73.6
72226;BME280;60130;52.250;5.048;2022-10-16T10:40:05;1014.6;;;16.9;73.2
72226;BME280;60130;52.250;5.048;2022-10-16T10:45:16;1014.6;;;17.2;72.8
72226;BME280;60130;52.250;5.048;2022-10-16T10:50:06;1014.7;;;17.1;72.6
72226;BME280;60130;52.250;5.048;2022-10-16T10:55:08;1014.7;;;16.8;72.5
72226;BME280;60130;52.250;5.048;2022-10-16T11:00:10;1014.8;;;16.9;72.7
72226;BME280;60130;52.250;5.048;2022-10-16T11:10:03;1014.9;;;17.1;72.5
72226;BME280;60130;52.250;5.048;2022-10-16T11:15:05;1014.8;;;16.8;72.2
72226;BME280;60130;52.250;5.048;2022-10-16T11:20:05;1014.9;;;17.3;71.4
72226;BME280;60130;52.250;5.048;2022-10-16T11:25:04;1015.0;;;18.3;68.2
72226;BME280;60130;52.250;5.048;2022-10-16T11:30:02;1015.0;;;17.9;67.6
72226;BME280;60130;52.250;5.048;2022-10-16T11:35:06;1015.0;;;17.7;65.8
72226;BME280;60130;52.250;5.048;2022-10-16T11:40:05;1015.1;;;18.0;65.3
72226;BME280;60130;52.250;5.048;2022-10-16T11:45:03;1015.1;;;18.2;62.7
72226;BME280;60130;52.250;5.048;2022-10-16T11:50:03;1015.2;;;18.4;64.7
72226;BME280;60130;52.250;5.048;2022-10-16T11:55:04;1015.2;;;18.6;64.0
72226;BME280;60130;52.250;5.048;2022-10-16T12:00:02;1015.2;;;18.5;62.8
72226;BME280;60130;52.250;5.048;2022-10-16T12:05:10;1015.3;;;18.3;64.2
72226;BME280;60130;52.250;5.048;2022-10-16T12:10:10;1015.3;;;18.6;60.0
72226;BME280;60130;52.250;5.048;2022-10-16T12:15:00;1015.3;;;18.7;62.1
72226;BME280;60130;52.250;5.048;2022-10-16T12:20:17;1015.4;;;18.7;62.3
72226;BME280;60130;52.250;5.048;2022-10-16T12:25:00;1015.4;;;18.4;62.3
72226;BME280;60130;52.250;5.048;2022-10-16T12:30:02;1015.5;;;18.6;62.6
72226;BME280;60130;52.250;5.048;2022-10-16T12:35:01;1015.5;;;18.8;57.1
72226;BME280;60130;52.250;5.048;2022-10-16T12:40:11;1015.4;;;18.8;59.1
72226;BME280;60130;52.250;5.048;2022-10-16T12:45:00;1015.4;;;18.8;60.0
72226;BME280;60130;52.250;5.048;2022-10-16T12:50:00;1015.5;;;18.3;60.5
72226;BME280;60130;52.250;5.048;2022-10-16T12:55:00;1015.6;;;18.4;60.5
72226;BME280;60130;52.250;5.048;2022-10-16T13:00:04;1015.5;;;18.5;60.3
72226;BME280;60130;52.250;5.048;2022-10-16T13:05:13;1015.5;;;18.2;58.5
72226;BME280;60130;52.250;5.048;2022-10-16T13:10:06;1015.6;;;18.1;59.6
72226;BME280;60130;52.250;5.048;2022-10-16T13:20:10;1015.6;;;18.2;61.0
72226;BME280;60130;52.250;5.048;2022-10-16T13:25:12;1015.7;;;18.3;62.0
72226;BME280;60130;52.250;5.048;2022-10-16T13:30:02;1015.7;;;18.3;63.2
72226;BME280;60130;52.250;5.048;2022-10-16T13:35:00;1015.9;;;18.3;63.4
72226;BME280;60130;52.250;5.048;2022-10-16T13:40:12;1016.0;;;18.3;65.0
72226;BME280;60130;52.250;5.048;2022-10-16T13:45:00;1016.0;;;18.3;62.9
72226;BME280;60130;52.250;5.048;2022-10-16T13:50:01;1016.1;;;18.3;63.1
72226;BME280;60130;52.250;5.048;2022-10-16T13:55:00;1016.0;;;18.3;62.8
72226;BME280;60130;52.250;5.048;2022-10-16T14:00:00;1016.0;;;18.2;62.1
72226;BME280;60130;52.250;5.048;2022-10-16T14:05:01;1016.1;;;18.2;62.8
72226;BME280;60130;52.250;5.048;2022-10-16T14:10:02;1016.1;;;18.3;62.5
72226;BME280;60130;52.250;5.048;2022-10-16T14:15:00;1016.1;;;18.2;61.9
72226;BME280;60130;52.250;5.048;2022-10-16T14:20:02;1016.0;;;18.2;62.2
72226;BME280;60130;52.250;5.048;2022-10-16T14:25:01;1015.9;;;18.2;62.5
72226;BME280;60130;52.250;5.048;2022-10-16T14:30:14;1016.0;;;18.3;62.3
72226;BME280;60130;52.250;5.048;2022-10-16T14:35:00;1016.0;;;18.4;62.9
72226;BME280;60130;52.250;5.048;2022-10-16T14:40:02;1016.1;;;18.2;62.9
72226;BME280;60130;52.250;5.048;2022-10-16T14:45:00;1016.1;;;18.2;63.3
72226;BME280;60130;52.250;5.048;2022-10-16T14:50:00;1016.2;;;18.3;63.3
72226;BME280;60130;52.250;5.048;2022-10-16T14:55:00;1016.1;;;18.3;64.6
72226;BME280;60130;52.250;5.048;2022-10-16T15:00:00;1016.1;;;18.2;65.1
72226;BME280;60130;52.250;5.048;2022-10-16T15:05:10;1016.2;;;18.2;65.2
72226;BME280;60130;52.250;5.048;2022-10-16T15:10:00;1016.2;;;18.1;66.1
72226;BME280;60130;52.250;5.048;2022-10-16T15:15:00;1016.2;;;17.9;67.8
72226;BME280;60130;52.250;5.048;2022-10-16T15:20:00;1016.1;;;17.7;68.8
72226;BME280;60130;52.250;5.048;2022-10-16T15:25:00;1016.1;;;17.6;69.4
72226;BME280;60130;52.250;5.048;2022-10-16T15:30:00;1016.1;;;17.4;69.6
72226;BME280;60130;52.250;5.048;2022-10-16T15:35:00;1016.1;;;17.2;70.7
72226;BME280;60130;52.250;5.048;2022-10-16T15:40:00;1016.0;;;17.1;71.2
72226;BME280;60130;52.250;5.048;2022-10-16T15:45:00;1016.0;;;17.0;71.5
72226;BME280;60130;52.250;5.048;2022-10-16T15:50:00;1016.0;;;17.0;71.4
72226;BME280;60130;52.250;5.048;2022-10-16T15:55:00;1016.0;;;16.9;72.4
72226;BME280;60130;52.250;5.048;2022-10-16T16:00:00;1016.2;;;16.7;72.3
72226;BME280;60130;52.250;5.048;2022-10-16T16:05:00;1016.2;;;16.6;72.4
72226;BME280;60130;52.250;5.048;2022-10-16T16:10:00;1016.2;;;16.5;72.7
72226;BME280;60130;52.250;5.048;2022-10-16T16:15:00;1016.2;;;16.4;73.7
72226;BME280;60130;52.250;5.048;2022-10-16T16:20:00;1016.3;;;16.2;74.2
72226;BME280;60130;52.250;5.048;2022-10-16T16:25:00;1016.3;;;16.0;75.0
72226;BME280;60130;52.250;5.048;2022-10-16T16:30:00;1016.2;;;15.8;76.0
72226;BME280;60130;52.250;5.048;2022-10-16T16:35:00;1016.3;;;15.8;75.9
72226;BME280;60130;52.250;5.048;2022-10-16T16:40:00;1016.2;;;15.7;76.2
72226;BME280;60130;52.250;5.048;2022-10-16T16:45:00;1016.3;;;15.6;76.6
72226;BME280;60130;52.250;5.048;2022-10-16T16:50:00;1016.5;;;15.5;76.8
72226;BME280;60130;52.250;5.048;2022-10-16T16:55:00;1016.5;;;15.2;78.3
72226;BME280;60130;52.250;5.048;2022-10-16T17:00:00;1016.5;;;15.1;78.8
72226;BME280;60130;52.250;5.048;2022-10-16T17:05:00;1016.5;;;15.1;78.6
72226;BME280;60130;52.250;5.048;2022-10-16T17:10:00;1016.5;;;15.0;79.5
72226;BME280;60130;52.250;5.048;2022-10-16T17:15:00;1016.5;;;15.0;79.3
72226;BME280;60130;52.250;5.048;2022-10-16T17:20:00;1016.5;;;14.8;79.7
72226;BME280;60130;52.250;5.048;2022-10-16T17:25:00;1016.6;;;14.9;79.9
72226;BME280;60130;52.250;5.048;2022-10-16T17:30:00;1016.7;;;15.0;79.3
72226;BME280;60130;52.250;5.048;2022-10-16T17:35:00;1016.8;;;15.1;79.0
72226;BME280;60130;52.250;5.048;2022-10-16T17:40:00;1016.8;;;14.9;79.4
72226;BME280;60130;52.250;5.048;2022-10-16T17:45:00;1016.8;;;14.8;79.7
72226;BME280;60130;52.250;5.048;2022-10-16T17:50:00;1016.7;;;14.7;80.2
72226;BME280;60130;52.250;5.048;2022-10-16T17:55:00;1016.8;;;14.7;80.0
72226;BME280;60130;52.250;5.048;2022-10-16T18:00:00;1016.8;;;14.7;80.3
72226;BME280;60130;52.250;5.048;2022-10-16T18:05:00;1016.8;;;14.7;80.8
72226;BME280;60130;52.250;5.048;2022-10-16T18:10:00;1016.8;;;14.7;80.8
72226;BME280;60130;52.250;5.048;2022-10-16T18:15:00;1016.9;;;14.8;80.6
72226;BME280;60130;52.250;5.048;2022-10-16T18:20:00;1016.8;;;14.9;80.1
72226;BME280;60130;52.250;5.048;2022-10-16T18:25:00;1016.9;;;14.9;79.9
72226;BME280;60130;52.250;5.048;2022-10-16T18:30:00;1017.1;;;15.0;79.4
72226;BME280;60130;52.250;5.048;2022-10-16T18:35:00;1017.2;;;15.0;79.5
72226;BME280;60130;52.250;5.048;2022-10-16T18:40:00;1017.2;;;14.9;79.5
72226;BME280;60130;52.250;5.048;2022-10-16T18:45:00;1017.3;;;15.0;80.3
72226;BME280;60130;52.250;5.048;2022-10-16T18:50:00;1017.3;;;15.0;80.8
72226;BME280;60130;52.250;5.048;2022-10-16T18:55:00;1017.2;;;14.7;81.2
72226;BME280;60130;52.250;5.048;2022-10-16T19:00:00;1017.2;;;14.8;81.9
72226;BME280;60130;52.250;5.048;2022-10-16T19:05:00;1017.2;;;14.7;82.6
72226;BME280;60130;52.250;5.048;2022-10-16T19:10:00;1017.1;;;14.6;83.1
72226;BME280;60130;52.250;5.048;2022-10-16T19:15:00;1017.1;;;14.5;83.5
72226;BME280;60130;52.250;5.048;2022-10-16T19:20:00;1017.1;;;14.5;83.8
72226;BME280;60130;52.250;5.048;2022-10-16T19:25:00;1017.2;;;14.6;83.5
72226;BME280;60130;52.250;5.048;2022-10-16T19:30:00;1017.2;;;14.5;83.7
72226;BME280;60130;52.250;5.048;2022-10-16T19:35:00;1017.2;;;14.3;83.4
72226;BME280;60130;52.250;5.048;2022-10-16T19:40:00;1017.2;;;14.3;83.3
72226;BME280;60130;52.250;5.048;2022-10-16T19:45:00;1017.2;;;14.3;83.7
72226;BME280;60130;52.250;5.048;2022-10-16T19:50:00;1017.1;;;14.2;84.1
72226;BME280;60130;52.250;5.048;2022-10-16T19:55:00;1017.0;;;14.1;84.7
72226;BME280;60130;52.250;5.048;2022-10-16T20:00:00;1016.9;;;14.1;85.0
72226;BME280;60130;52.250;5.048;2022-10-16T20:05:00;1016.8;;;14.0;85.2
72226;BME280;60130;52.250;5.048;2022-10-16T20:10:00;1016.7;;;14.0;85.4
72226;BME280;60130;52.250;5.048;2022-10-16T20:15:00;1016.6;;;14.0;85.7
72226;BME280;60130;52.250;5.048;2022-10-16T20:20:00;1016.7;;;14.0;85.6
72226;BME280;60130;52.250;5.048;2022-10-16T20:25:00;1016.8;;;14.1;85.9
72226;BME280;60130;52.250;5.048;2022-10-16T20:30:00;1016.8;;;14.1;86.0
72226;BME280;60130;52.250;5.048;2022-10-16T20:35:00;1016.8;;;14.1;86.1
72226;BME280;60130;52.250;5.048;2022-10-16T20:40:00;1016.7;;;14.2;86.3
72226;BME280;60130;52.250;5.048;2022-10-16T20:45:00;1016.8;;;14.2;86.5
72226;BME280;60130;52.250;5.048;2022-10-16T20:50:00;1016.8;;;14.2;86.7
72226;BME280;60130;52.250;5.048;2022-10-16T20:55:00;1016.7;;;14.2;86.9
72226;BME280;60130;52.250;5.048;2022-10-16T21:00:00;1016.5;;;14.2;87.4
72226;BME280;60130;52.250;5.048;2022-10-16T21:05:00;1016.7;;;14.3;87.4
72226;BME280;60130;52.250;5.048;2022-10-16T21:10:00;1016.7;;;14.4;87.3
72226;BME280;60130;52.250;5.048;2022-10-16T21:15:00;1016.7;;;14.4;87.4
72226;BME280;60130;52.250;5.048;2022-10-16T21:20:00;1016.6;;;14.5;87.3
72226;BME280;60130;52.250;5.048;2022-10-16T21:25:00;1016.5;;;14.5;87.2
72226;BME280;60130;52.250;5.048;2022-10-16T21:30:00;1016.4;;;14.5;87.2
72226;BME280;60130;52.250;5.048;2022-10-16T21:35:00;1016.3;;;14.5;87.2
72226;BME280;60130;52.250;5.048;2022-10-16T21:40:00;1016.2;;;14.5;87.3
72226;BME280;60130;52.250;5.048;2022-10-16T21:45:00;1016.1;;;14.5;87.3
72226;BME280;60130;52.250;5.048;2022-10-16T21:50:00;1016.1;;;14.5;87.2
72226;BME280;60130;52.250;5.048;2022-10-16T21:55:00;1016.1;;;14.5;87.2
72226;BME280;60130;52.250;5.048;2022-10-16T22:00:00;1016.0;;;14.4;87.4
72226;BME280;60130;52.250;5.048;2022-10-16T22:05:00;1016.0;;;14.4;87.3
72226;BME280;60130;52.250;5.048;2022-10-16T22:10:00;1016.1;;;14.4;87.2
72226;BME280;60130;52.250;5.048;2022-10-16T22:15:00;1016.0;;;14.4;87.1
72226;BME280;60130;52.250;5.048;2022-10-16T22:20:00;1016.1;;;14.4;87.1
72226;BME280;60130;52.250;5.048;2022-10-16T22:25:00;1016.2;;;14.5;87.3
72226;BME280;60130;52.250;5.048;2022-10-16T22:30:00;1016.2;;;14.5;87.5
72226;BME280;60130;52.250;5.048;2022-10-16T22:35:00;1016.1;;;14.6;87.6
72226;BME280;60130;52.250;5.048;2022-10-16T22:40:00;1016.1;;;14.7;87.5
72226;BME280;60130;52.250;5.048;2022-10-16T22:45:00;1016.1;;;14.8;87.5
72226;BME280;60130;52.250;5.048;2022-10-16T22:50:00;1016.1;;;14.9;87.2
72226;BME280;60130;52.250;5.048;2022-10-16T22:55:00;1016.1;;;14.9;87.2
72226;BME280;60130;52.250;5.048;2022-10-16T23:00:00;1016.1;;;15.0;87.1
72226;BME280;60130;52.250;5.048;2022-10-16T23:05:00;1016.2;;;14.9;87.3
72226;BME280;60130;52.250;5.048;2022-10-16T23:10:00;1016.2;;;15.0;87.1
72226;BME280;60130;52.250;5.048;2022-10-16T23:15:00;1016.2;;;15.1;87.0
72226;BME280;60130;52.250;5.048;2022-10-16T23:20:00;1016.2;;;15.1;86.6
72226;BME280;60130;52.250;5.048;2022-10-16T23:25:00;1016.1;;;15.0;86.7
72226;BME280;60130;52.250;5.048;2022-10-16T23:30:00;1016.2;;;14.9;86.8
72226;BME280;60130;52.250;5.048;2022-10-16T23:35:00;1016.2;;;14.9;86.9
72226;BME280;60130;52.250;5.048;2022-10-16T23:40:00;1016.2;;;14.9;87.1
72226;BME280;60130;52.250;5.048;2022-10-16T23:45:00;1016.2;;;14.9;87.0
72226;BME280;60130;52.250;5.048;2022-10-16T23:50:00;1016.2;;;14.8;87.5
72226;BME280;60130;52.250;5.048;2022-10-16T23:55:00;1016.0;;;14.8;87.3
